createdAt,value
2022-10-26T00:01:15.068Z,101334.00
2022-10-26T00:03:45.181Z,101348.00
2022-10-26T00:06:18.800Z,101341.00
2022-10-26T00:08:47.391Z,101347.00
2022-10-26T00:11:15.275Z,101343.00
2022-10-26T00:13:42.938Z,101338.00
2022-10-26T00:16:17.644Z,101337.00
2022-10-26T00:18:45.033Z,101341.00
2022-10-26T00:21:13.174Z,101340.00
2022-10-26T00:23:40.287Z,101343.00
2022-10-26T00:26:08.481Z,101349.00
2022-10-26T00:28:36.036Z,101336.00
2022-10-26T00:31:06.363Z,101360.00
2022-10-26T00:33:33.752Z,101363.00
2022-10-26T00:36:00.800Z,101363.00
2022-10-26T00:38:28.242Z,101365.00
2022-10-26T00:40:55.227Z,101363.00
2022-10-26T00:43:22.215Z,101374.00
2022-10-26T00:45:52.126Z,101378.00
2022-10-26T00:48:35.235Z,101387.00
2022-10-26T00:51:10.676Z,101371.00
2022-10-26T00:53:38.461Z,101382.00
2022-10-26T00:56:05.880Z,101388.00
2022-10-26T00:58:34.535Z,101375.00
2022-10-26T01:01:02.080Z,101375.00
2022-10-26T01:03:31.694Z,101365.00
2022-10-26T01:05:58.875Z,101369.00
2022-10-26T01:08:28.226Z,101359.00
2022-10-26T01:10:57.983Z,101364.00
2022-10-26T01:13:29.561Z,101349.00
2022-10-26T01:16:40.818Z,101352.00
2022-10-26T01:19:52.240Z,101363.00
2022-10-26T01:22:29.693Z,101352.00
2022-10-26T01:25:04.355Z,101355.00
2022-10-26T01:27:50.536Z,101351.00
2022-10-26T01:30:31.036Z,101351.00
2022-10-26T01:33:20.378Z,101349.00
2022-10-26T01:36:12.935Z,101352.00
2022-10-26T01:39:08.278Z,101332.00
2022-10-26T01:41:53.215Z,101342.00
2022-10-26T01:44:39.658Z,101334.00
2022-10-26T01:47:10.708Z,101333.00
2022-10-26T01:49:43.027Z,101329.00
2022-10-26T01:52:10.903Z,101332.00
2022-10-26T01:57:14.753Z,101326.00
2022-10-26T02:00:06.174Z,101330.00
2022-10-26T02:03:08.263Z,101321.00
2022-10-26T02:06:07.450Z,101315.00
2022-10-26T02:09:23.681Z,101312.00
2022-10-26T02:11:54.012Z,101321.00
2022-10-26T02:14:39.783Z,101317.00
2022-10-26T02:17:16.301Z,101325.00
2022-10-26T02:20:02.186Z,101333.00
2022-10-26T02:22:45.251Z,101323.00
2022-10-26T02:25:34.944Z,101314.00
2022-10-26T02:28:08.302Z,101306.00
2022-10-26T02:30:37.016Z,101310.00
2022-10-26T02:33:08.585Z,101312.00
2022-10-26T02:35:40.613Z,101313.00
2022-10-26T02:38:12.583Z,101314.00
2022-10-26T02:40:40.345Z,101299.00
2022-10-26T02:43:14.018Z,101304.00
2022-10-26T02:45:56.185Z,101315.00
2022-10-26T02:48:24.048Z,101314.00
2022-10-26T02:51:15.417Z,101327.00
2022-10-26T02:53:52.735Z,101325.00
2022-10-26T02:56:32.043Z,101323.00
2022-10-26T02:59:05.681Z,101323.00
2022-10-26T03:01:35.284Z,101323.00
2022-10-26T03:04:02.146Z,101327.00
2022-10-26T03:06:29.057Z,101328.00
2022-10-26T03:08:56.599Z,101329.00
2022-10-26T03:11:23.411Z,101327.00
2022-10-26T03:13:50.110Z,101325.00
2022-10-26T03:16:16.850Z,101333.00
2022-10-26T03:18:43.605Z,101328.00
2022-10-26T03:21:10.303Z,101340.00
2022-10-26T03:23:37.021Z,101332.00
2022-10-26T03:26:03.751Z,101328.00
2022-10-26T03:28:30.504Z,101327.00
2022-10-26T03:30:57.235Z,101337.00
2022-10-26T03:33:27.016Z,101331.00
2022-10-26T03:35:57.327Z,101330.00
2022-10-26T03:38:24.444Z,101333.00
2022-10-26T03:40:51.292Z,101324.00
2022-10-26T03:43:18.212Z,101332.00
2022-10-26T03:45:45.561Z,101328.00
2022-10-26T03:48:12.577Z,101330.00
2022-10-26T03:50:39.422Z,101325.00
2022-10-26T03:53:07.066Z,101338.00
2022-10-26T03:55:33.865Z,101334.00
2022-10-26T03:58:00.591Z,101334.00
2022-10-26T04:00:27.471Z,101329.00
2022-10-26T04:02:58.372Z,101333.00
2022-10-26T04:05:28.497Z,101326.00
2022-10-26T04:08:03.161Z,101339.00
2022-10-26T04:10:31.500Z,101327.00
2022-10-26T04:13:01.996Z,101335.00
2022-10-26T04:15:29.337Z,101333.00
2022-10-26T04:18:01.987Z,101334.00
2022-10-26T04:20:30.418Z,101337.00
2022-10-26T04:23:02.823Z,101332.00
2022-10-26T04:25:32.991Z,101345.00
2022-10-26T04:28:02.693Z,101334.00
2022-10-26T04:30:30.064Z,101342.00
2022-10-26T04:32:56.794Z,101337.00
2022-10-26T04:35:23.814Z,101337.00
2022-10-26T04:37:50.540Z,101341.00
2022-10-26T04:40:17.485Z,101339.00
2022-10-26T04:42:46.871Z,101337.00
2022-10-26T04:45:16.279Z,101342.00
2022-10-26T04:47:43.792Z,101351.00
2022-10-26T04:50:12.858Z,101348.00
2022-10-26T04:52:40.636Z,101357.00
2022-10-26T04:55:08.028Z,101341.00
2022-10-26T04:57:35.767Z,101338.00
2022-10-26T05:00:05.243Z,101345.00
2022-10-26T05:02:32.024Z,101348.00
2022-10-26T05:04:58.968Z,101341.00
2022-10-26T05:07:25.744Z,101340.00
2022-10-26T05:09:52.515Z,101336.00
2022-10-26T05:12:19.997Z,101326.00
2022-10-26T05:14:46.699Z,101335.00
2022-10-26T05:17:13.545Z,101334.00
2022-10-26T05:19:40.438Z,101324.00
2022-10-26T05:22:07.416Z,101337.00
2022-10-26T05:24:34.283Z,101336.00
2022-10-26T05:27:01.094Z,101341.00
2022-10-26T05:29:27.802Z,101350.00
2022-10-26T05:31:54.554Z,101343.00
2022-10-26T05:34:21.309Z,101348.00
2022-10-26T05:36:48.202Z,101340.00
2022-10-26T05:39:14.890Z,101339.00
2022-10-26T05:41:41.623Z,101344.00
2022-10-26T05:44:08.327Z,101338.00
2022-10-26T05:46:35.039Z,101343.00
2022-10-26T05:49:01.769Z,101345.00
2022-10-26T05:51:28.526Z,101348.00
2022-10-26T05:53:55.334Z,101357.00
2022-10-26T05:56:41.680Z,101357.00
2022-10-26T05:59:17.107Z,101341.00
2022-10-26T06:02:13.726Z,101361.00
2022-10-26T06:04:48.079Z,101360.00
2022-10-26T06:07:19.395Z,101356.00
2022-10-26T06:09:47.799Z,101365.00
2022-10-26T06:12:19.236Z,101365.00
2022-10-26T06:14:47.401Z,101359.00
2022-10-26T06:17:44.828Z,101358.00
2022-10-26T06:20:39.437Z,101364.00
2022-10-26T06:23:53.332Z,101365.00
2022-10-26T06:26:36.262Z,101366.00
2022-10-26T06:29:27.352Z,101368.00
2022-10-26T06:31:54.211Z,101377.00
2022-10-26T06:34:32.903Z,101365.00
2022-10-26T06:37:01.514Z,101366.00
2022-10-26T06:39:35.731Z,101374.00
2022-10-26T06:42:02.713Z,101382.00
2022-10-26T06:44:29.880Z,101379.00
2022-10-26T06:47:27.142Z,101380.00
2022-10-26T06:50:21.827Z,101383.00
2022-10-26T06:53:03.465Z,101391.00
2022-10-26T06:55:40.534Z,101383.00
2022-10-26T06:58:15.587Z,101388.00
2022-10-26T07:00:44.654Z,101398.00
2022-10-26T07:03:11.419Z,101396.00
2022-10-26T07:05:38.210Z,101389.00
2022-10-26T07:08:05.904Z,101388.00
2022-10-26T07:10:35.076Z,101395.00
2022-10-26T07:13:01.831Z,101394.00
2022-10-26T07:15:28.534Z,101386.00
2022-10-26T07:17:55.236Z,101387.00
2022-10-26T07:20:23.078Z,101383.00
2022-10-26T07:22:55.074Z,101388.00
2022-10-26T07:25:24.053Z,101383.00
2022-10-26T07:27:51.300Z,101391.00
2022-10-26T07:30:18.734Z,101389.00
2022-10-26T07:32:45.544Z,101390.00
2022-10-26T07:35:12.541Z,101392.00
2022-10-26T07:37:39.350Z,101386.00
2022-10-26T07:40:07.598Z,101398.00
2022-10-26T07:42:36.664Z,101399.00
2022-10-26T07:45:04.839Z,101385.00
2022-10-26T07:47:31.567Z,101390.00
2022-10-26T07:49:58.319Z,101385.00
2022-10-26T07:52:25.053Z,101392.00
2022-10-26T07:54:51.762Z,101388.00
2022-10-26T07:57:18.598Z,101388.00
2022-10-26T07:59:45.496Z,101389.00
2022-10-26T08:02:12.268Z,101398.00
2022-10-26T08:04:39.072Z,101382.00
2022-10-26T08:07:05.775Z,101388.00
2022-10-26T08:09:32.556Z,101393.00
2022-10-26T08:11:59.338Z,101400.00
2022-10-26T08:14:26.085Z,101402.00
2022-10-26T08:16:53.101Z,101391.00
2022-10-26T08:19:20.038Z,101399.00
2022-10-26T08:21:46.771Z,101389.00
2022-10-26T08:24:13.915Z,101398.00
2022-10-26T08:26:41.855Z,101407.00
2022-10-26T08:29:08.975Z,101402.00
2022-10-26T08:31:35.786Z,101397.00
2022-10-26T08:34:04.021Z,101407.00
2022-10-26T08:36:30.819Z,101408.00
2022-10-26T08:38:57.646Z,101398.00
2022-10-26T08:41:40.802Z,101396.00
2022-10-26T08:44:25.040Z,101402.00
2022-10-26T08:46:58.384Z,101398.00
2022-10-26T08:49:54.829Z,101395.00
2022-10-26T08:52:32.806Z,101392.00
2022-10-26T08:55:03.540Z,101393.00
2022-10-26T08:57:41.745Z,101409.00
2022-10-26T09:00:17.584Z,101405.00
2022-10-26T09:02:44.451Z,101397.00
2022-10-26T09:05:23.549Z,101396.00
2022-10-26T09:08:17.946Z,101393.00
2022-10-26T09:11:01.513Z,101396.00
2022-10-26T09:14:14.549Z,101396.00
2022-10-26T09:17:16.135Z,101401.00
2022-10-26T09:20:15.244Z,101413.00
2022-10-26T09:23:06.196Z,101416.00
2022-10-26T09:25:40.679Z,101418.00
2022-10-26T09:28:19.008Z,101405.00
2022-10-26T09:30:47.915Z,101410.00
2022-10-26T09:33:20.574Z,101410.00
2022-10-26T09:35:57.594Z,101403.00
2022-10-26T09:39:13.853Z,101405.00
2022-10-26T09:41:57.836Z,101413.00
2022-10-26T09:44:44.982Z,101403.00
2022-10-26T09:47:26.778Z,101413.00
2022-10-26T09:50:16.191Z,101420.00
2022-10-26T09:52:43.242Z,101423.00
2022-10-26T09:55:13.944Z,101415.00
2022-10-26T09:57:46.416Z,101403.00
2022-10-26T10:00:17.017Z,101407.00
2022-10-26T10:02:50.484Z,101418.00
2022-10-26T10:05:50.763Z,101405.00
2022-10-26T10:08:27.520Z,101422.00
2022-10-26T10:11:05.282Z,101423.00
2022-10-26T10:13:36.715Z,101413.00
2022-10-26T10:16:08.117Z,101424.00
2022-10-26T10:18:36.297Z,101413.00
2022-10-26T10:21:05.120Z,101412.00
2022-10-26T10:23:46.411Z,101420.00
2022-10-26T10:26:13.306Z,101420.00
2022-10-26T10:28:42.650Z,101417.00
2022-10-26T10:31:28.732Z,101416.00
2022-10-26T10:33:55.485Z,101411.00
2022-10-26T10:36:26.475Z,101418.00
2022-10-26T10:38:54.319Z,101413.00
2022-10-26T10:41:36.336Z,101412.00
2022-10-26T10:44:22.664Z,101408.00
2022-10-26T10:46:49.429Z,101411.00
2022-10-26T10:49:27.526Z,101415.00
2022-10-26T10:51:56.399Z,101415.00
2022-10-26T10:54:38.938Z,101424.00
2022-10-26T10:57:28.038Z,101412.00
2022-10-26T11:00:08.706Z,101417.00
2022-10-26T11:03:05.979Z,101416.00
2022-10-26T11:06:05.142Z,101414.00
2022-10-26T11:08:57.605Z,101414.00
2022-10-26T11:11:44.662Z,101416.00
2022-10-26T11:14:38.071Z,101419.00
2022-10-26T11:17:22.836Z,101419.00
2022-10-26T11:20:02.508Z,101412.00
2022-10-26T11:22:41.945Z,101420.00
2022-10-26T11:25:33.302Z,101420.00
2022-10-26T11:28:41.010Z,101413.00
2022-10-26T11:31:16.423Z,101416.00
2022-10-26T11:36:33.196Z,101408.00
2022-10-26T11:39:16.328Z,101414.00
2022-10-26T11:42:25.061Z,101406.00
2022-10-26T11:45:09.895Z,101397.00
2022-10-26T11:47:48.704Z,101397.00
2022-10-26T11:50:34.874Z,101394.00
2022-10-26T11:53:14.689Z,101393.00
2022-10-26T11:55:46.087Z,101396.00
2022-10-26T11:58:13.398Z,101393.00
2022-10-26T12:00:53.094Z,101392.00
2022-10-26T12:03:30.914Z,101392.00
2022-10-26T12:05:57.677Z,101389.00
2022-10-26T12:08:43.495Z,101387.00
2022-10-26T12:11:43.927Z,101390.00
2022-10-26T12:14:24.486Z,101395.00
2022-10-26T12:17:07.092Z,101382.00
2022-10-26T12:19:51.534Z,101384.00
2022-10-26T12:22:21.823Z,101385.00
2022-10-26T12:25:12.427Z,101377.00
2022-10-26T12:27:41.491Z,101372.00
2022-10-26T12:30:22.910Z,101378.00
2022-10-26T12:32:55.440Z,101373.00
2022-10-26T12:35:44.269Z,101364.00
2022-10-26T12:38:30.302Z,101360.00
2022-10-26T12:41:06.399Z,101375.00
2022-10-26T12:43:39.975Z,101375.00
2022-10-26T12:46:12.639Z,101383.00
2022-10-26T12:48:48.921Z,101377.00
2022-10-26T12:51:21.674Z,101382.00
2022-10-26T12:54:07.548Z,101374.00
2022-10-26T12:57:19.013Z,101374.00
2022-10-26T13:00:05.193Z,101381.00
2022-10-26T13:02:54.491Z,101378.00
2022-10-26T13:05:36.651Z,101373.00
2022-10-26T13:08:09.351Z,101382.00
2022-10-26T13:10:40.391Z,101379.00
2022-10-26T13:13:09.168Z,101375.00
2022-10-26T13:15:39.794Z,101373.00
2022-10-26T13:18:17.933Z,101377.00
2022-10-26T13:21:15.203Z,101368.00
2022-10-26T13:24:01.767Z,101358.00
2022-10-26T13:26:31.256Z,101365.00
2022-10-26T13:29:01.323Z,101358.00
2022-10-26T13:31:31.499Z,101357.00
2022-10-26T13:37:06.962Z,101367.00
2022-10-26T13:39:42.567Z,101372.00
2022-10-26T13:42:20.716Z,101377.00
2022-10-26T13:45:13.669Z,101377.00
2022-10-26T13:48:11.939Z,101374.00
2022-10-26T13:53:57.625Z,101381.00
2022-10-26T13:56:55.333Z,101381.00
2022-10-26T13:59:24.143Z,101381.00
2022-10-26T14:02:18.755Z,101388.00
2022-10-26T14:04:48.088Z,101389.00
2022-10-26T14:07:34.482Z,101389.00
2022-10-26T14:10:01.296Z,101389.00
2022-10-26T14:12:29.044Z,101383.00
2022-10-26T14:15:06.927Z,101382.00
2022-10-26T14:17:33.927Z,101387.00
2022-10-26T14:20:02.650Z,101392.00
2022-10-26T14:22:30.496Z,101387.00
2022-10-26T14:25:01.357Z,101388.00
2022-10-26T14:27:37.975Z,101396.00
2022-10-26T14:30:27.827Z,101384.00
2022-10-26T14:32:55.778Z,101392.00
2022-10-26T14:35:33.089Z,101391.00
2022-10-26T14:38:10.769Z,101391.00
2022-10-26T14:40:37.713Z,101393.00
2022-10-26T14:43:06.111Z,101392.00
2022-10-26T14:45:53.318Z,101402.00
2022-10-26T14:48:30.341Z,101406.00
2022-10-26T14:51:03.577Z,101419.00
2022-10-26T14:53:38.180Z,101413.00
2022-10-26T14:56:17.680Z,101414.00
2022-10-26T14:58:44.742Z,101416.00
2022-10-26T15:01:29.288Z,101420.00
2022-10-26T15:04:06.040Z,101416.00
2022-10-26T15:06:42.413Z,101425.00
2022-10-26T15:09:32.173Z,101420.00
2022-10-26T15:11:59.855Z,101425.00
2022-10-26T15:14:26.623Z,101428.00
2022-10-26T15:16:57.517Z,101428.00
2022-10-26T15:19:27.194Z,101424.00
2022-10-26T15:21:54.714Z,101423.00
2022-10-26T15:24:21.387Z,101422.00
2022-10-26T15:26:48.511Z,101430.00
2022-10-26T15:29:40.043Z,101421.00
2022-10-26T15:32:31.011Z,101422.00
2022-10-26T15:35:26.476Z,101415.00
2022-10-26T15:37:55.863Z,101424.00
2022-10-26T15:43:00.265Z,101422.00
2022-10-26T15:45:34.077Z,101423.00
2022-10-26T15:48:18.259Z,101428.00
2022-10-26T15:50:45.292Z,101427.00
2022-10-26T15:53:21.023Z,101426.00
2022-10-26T15:55:51.317Z,101440.00
2022-10-26T15:58:18.393Z,101446.00
2022-10-26T16:00:45.522Z,101439.00
2022-10-26T16:03:21.642Z,101449.00
2022-10-26T16:05:58.194Z,101437.00
2022-10-26T16:08:29.082Z,101450.00
2022-10-26T16:10:56.083Z,101459.00
2022-10-26T16:13:23.070Z,101448.00
2022-10-26T16:15:49.868Z,101450.00
2022-10-26T16:18:16.600Z,101456.00
2022-10-26T16:20:46.212Z,101446.00
2022-10-26T16:23:13.074Z,101448.00
2022-10-26T16:25:46.073Z,101452.00
2022-10-26T16:28:16.419Z,101457.00
2022-10-26T16:30:43.767Z,101454.00
2022-10-26T16:33:10.579Z,101458.00
2022-10-26T16:35:37.310Z,101454.00
2022-10-26T16:38:04.069Z,101461.00
2022-10-26T16:40:31.941Z,101462.00
2022-10-26T16:42:58.637Z,101457.00
2022-10-26T16:45:25.325Z,101462.00
2022-10-26T16:47:52.360Z,101454.00
2022-10-26T16:50:22.023Z,101454.00
2022-10-26T16:52:48.749Z,101464.00
2022-10-26T16:55:16.409Z,101464.00
2022-10-26T16:57:43.103Z,101473.00
2022-10-26T17:00:10.357Z,101473.00
2022-10-26T17:02:37.206Z,101474.00
2022-10-26T17:05:07.166Z,101478.00
2022-10-26T17:07:35.138Z,101490.00
2022-10-26T17:10:02.101Z,101488.00
2022-10-26T17:12:29.634Z,101484.00
2022-10-26T17:14:58.546Z,101488.00
2022-10-26T17:17:25.330Z,101492.00
2022-10-26T17:19:52.092Z,101494.00
2022-10-26T17:22:18.858Z,101500.00
2022-10-26T17:24:45.606Z,101497.00
2022-10-26T17:27:12.312Z,101508.00
2022-10-26T17:29:39.061Z,101514.00
2022-10-26T17:32:05.860Z,101514.00
2022-10-26T17:34:32.626Z,101524.00
2022-10-26T17:36:59.399Z,101517.00
2022-10-26T17:39:26.223Z,101525.00
2022-10-26T17:41:52.986Z,101522.00
2022-10-26T17:44:19.714Z,101525.00
2022-10-26T17:46:46.639Z,101522.00
2022-10-26T17:49:13.437Z,101523.00
2022-10-26T17:51:40.156Z,101525.00
2022-10-26T17:54:07.143Z,101522.00
2022-10-26T17:56:34.376Z,101528.00
2022-10-26T17:59:04.905Z,101527.00
2022-10-26T18:01:33.015Z,101536.00
2022-10-26T18:04:00.440Z,101527.00
2022-10-26T18:06:27.407Z,101529.00
2022-10-26T18:08:56.472Z,101534.00
2022-10-26T18:11:27.295Z,101533.00
2022-10-26T18:13:56.189Z,101539.00
2022-10-26T18:16:25.874Z,101549.00
2022-10-26T18:19:02.386Z,101556.00
2022-10-26T18:21:37.288Z,101555.00
2022-10-26T18:24:05.884Z,101563.00
2022-10-26T18:26:33.378Z,101572.00
2022-10-26T18:29:02.571Z,101572.00
2022-10-26T18:31:31.775Z,101580.00
2022-10-26T18:34:02.015Z,101570.00
2022-10-26T18:36:30.200Z,101577.00
2022-10-26T18:38:57.417Z,101578.00
2022-10-26T18:41:25.527Z,101580.00
2022-10-26T18:43:55.045Z,101586.00
2022-10-26T18:46:27.275Z,101586.00
2022-10-26T18:48:55.621Z,101595.00
2022-10-26T18:51:28.669Z,101590.00
2022-10-26T18:53:57.397Z,101587.00
2022-10-26T18:56:24.983Z,101596.00
2022-10-26T18:58:55.618Z,101600.00
2022-10-26T19:01:31.615Z,101593.00
2022-10-26T19:04:02.755Z,101595.00
2022-10-26T19:06:36.303Z,101590.00
2022-10-26T19:09:05.048Z,101595.00
2022-10-26T19:11:32.588Z,101596.00
2022-10-26T19:14:00.013Z,101592.00
2022-10-26T19:16:45.039Z,101592.00
2022-10-26T19:19:13.631Z,101600.00
2022-10-26T19:21:40.366Z,101602.00
2022-10-26T19:24:14.667Z,101594.00
2022-10-26T19:26:43.789Z,101605.00
2022-10-26T19:29:15.069Z,101617.00
2022-10-26T19:31:44.580Z,101621.00
2022-10-26T19:34:13.521Z,101633.00
2022-10-26T19:36:45.113Z,101621.00
2022-10-26T19:39:14.216Z,101624.00
2022-10-26T19:41:41.190Z,101634.00
2022-10-26T19:44:11.242Z,101630.00
2022-10-26T19:46:39.955Z,101631.00
2022-10-26T19:49:07.169Z,101640.00
2022-10-26T19:51:34.271Z,101632.00
2022-10-26T19:54:03.965Z,101645.00
2022-10-26T19:56:36.277Z,101635.00
2022-10-26T19:59:03.880Z,101650.00
2022-10-26T20:01:31.597Z,101647.00
2022-10-26T20:03:58.473Z,101650.00
2022-10-26T20:06:25.193Z,101647.00
2022-10-26T20:08:51.934Z,101655.00
2022-10-26T20:11:19.576Z,101653.00
2022-10-26T20:13:48.066Z,101653.00
2022-10-26T20:16:17.336Z,101664.00
2022-10-26T20:18:47.757Z,101650.00
2022-10-26T20:21:17.276Z,101660.00
2022-10-26T20:23:44.619Z,101661.00
2022-10-26T20:26:18.687Z,101657.00
2022-10-26T20:28:48.723Z,101663.00
2022-10-26T20:31:15.724Z,101661.00
2022-10-26T20:33:42.717Z,101667.00
2022-10-26T20:36:09.937Z,101671.00
2022-10-26T20:38:38.416Z,101675.00
2022-10-26T20:41:07.973Z,101679.00
2022-10-26T20:43:40.339Z,101682.00
2022-10-26T20:46:22.392Z,101682.00
2022-10-26T20:48:50.882Z,101683.00
2022-10-26T20:51:56.759Z,101687.00
2022-10-26T20:55:19.603Z,101680.00
2022-10-26T20:57:59.074Z,101684.00
2022-10-26T21:00:26.173Z,101696.00
2022-10-26T21:02:52.969Z,101696.00
2022-10-26T21:05:21.001Z,101689.00
2022-10-26T21:07:48.074Z,101698.00
2022-10-26T21:10:15.390Z,101694.00
2022-10-26T21:12:42.516Z,101695.00
2022-10-26T21:15:10.075Z,101711.00
2022-10-26T21:17:36.858Z,101708.00
2022-10-26T21:20:03.670Z,101711.00
2022-10-26T21:22:30.445Z,101695.00
2022-10-26T21:24:57.192Z,101712.00
2022-10-26T21:27:23.999Z,101705.00
2022-10-26T21:29:50.856Z,101716.00
2022-10-26T21:32:17.914Z,101710.00
2022-10-26T21:34:44.615Z,101716.00
2022-10-26T21:37:11.415Z,101717.00
2022-10-26T21:39:38.121Z,101719.00
2022-10-26T21:42:04.921Z,101724.00
2022-10-26T21:44:41.386Z,101726.00
2022-10-26T21:47:09.644Z,101726.00
2022-10-26T21:49:36.836Z,101735.00
2022-10-26T21:52:03.715Z,101728.00
2022-10-26T21:54:30.467Z,101729.00
2022-10-26T21:56:57.416Z,101744.00
2022-10-26T21:59:24.271Z,101741.00
2022-10-26T22:01:51.145Z,101736.00
2022-10-26T22:04:18.204Z,101742.00
2022-10-26T22:06:44.901Z,101740.00
2022-10-26T22:09:11.721Z,101739.00
2022-10-26T22:11:38.497Z,101737.00
2022-10-26T22:14:05.470Z,101741.00
2022-10-26T22:16:33.443Z,101742.00
2022-10-26T22:19:06.472Z,101744.00
2022-10-26T22:21:37.649Z,101751.00
2022-10-26T22:24:05.781Z,101747.00
2022-10-26T22:26:35.426Z,101749.00
2022-10-26T22:29:03.467Z,101752.00
2022-10-26T22:31:34.833Z,101746.00
2022-10-26T22:34:07.624Z,101734.00
2022-10-26T22:36:35.488Z,101742.00
2022-10-26T22:39:02.803Z,101746.00
2022-10-26T22:41:29.621Z,101750.00
2022-10-26T22:43:56.374Z,101744.00
2022-10-26T22:46:27.058Z,101748.00
2022-10-26T22:49:02.343Z,101755.00
2022-10-26T22:51:34.380Z,101750.00
2022-10-26T22:54:03.954Z,101752.00
2022-10-26T22:56:34.297Z,101755.00
2022-10-26T22:59:01.389Z,101756.00
2022-10-26T23:01:32.079Z,101738.00
2022-10-26T23:04:00.370Z,101750.00
2022-10-26T23:06:31.127Z,101750.00
2022-10-26T23:08:57.914Z,101753.00
2022-10-26T23:11:27.871Z,101758.00
2022-10-26T23:13:58.123Z,101767.00
2022-10-26T23:16:25.951Z,101767.00
2022-10-26T23:18:54.082Z,101769.00
2022-10-26T23:21:23.705Z,101780.00
2022-10-26T23:23:50.719Z,101778.00
2022-10-26T23:26:20.965Z,101782.00
2022-10-26T23:28:48.321Z,101782.00
2022-10-26T23:31:21.129Z,101777.00
2022-10-26T23:33:51.383Z,101788.00
2022-10-26T23:36:19.188Z,101797.00
2022-10-26T23:38:46.213Z,101797.00
2022-10-26T23:41:13.440Z,101801.00
2022-10-26T23:43:41.289Z,101788.00
2022-10-26T23:46:08.661Z,101794.00
2022-10-26T23:48:35.384Z,101794.00
2022-10-26T23:51:02.156Z,101793.00
2022-10-26T23:53:28.921Z,101795.00
2022-10-26T23:55:55.750Z,101796.00
2022-10-26T23:58:22.471Z,101787.00
